Greenburgh, New York
Current Conditions -  °F | °C
As of 10:56 PM on Thursday 27 Nov 2014 (Local Time) from KHPN Reporting Station
Broken Clouds Broken Clouds  
Wind Chill: -4°   Ceiling: 4600
Heat Index:   Visibility: 10mi
Dew Point: -3°   Wind: 9mph
Humidity: 82%   Direction: 330°NNW
Pressure: 30.03"   Gusts: NA
Location:  41.0404°N, 73.8014°W
Report Text: KHPN 280356Z 33008KT 10SM BKN046 00/M03 A3003 RMK AO2 SLP176 T00001028
Loading
Personal Weather Stations






























Interactive Weather Map New forecast layout! Learn more

10-Day Weather Forecast

Advertisements
Track Severe Weather on mobile